ADDS METAR Data INFO
IDs: Format: Raw Decoded Include TAF

Data at: 2010 UTC 19 Oct 2017

K49A 191955Z AUTO 00000KT 10SM CLR 23/07 A3029 RMK AO2 LTG DSNT N T02260074
K49A 191935Z AUTO 26004KT 10SM CLR 23/08 A3029 RMK AO2 LTG DSNT N T02280075
K49A 191915Z AUTO 00000KT 10SM CLR 23/05 A3030 RMK AO2 LTG DSNT N T02250046
K49A 191855Z AUTO 31003KT 10SM CLR 23/04 A3030 RMK AO2 LTG DSNT N T02260044
K49A 191835Z AUTO 27005KT 10SM CLR 22/04 A3031 RMK AO2 LTG DSNT N T02220038
K49A 191815Z AUTO 27003KT 10SM CLR 22/04 A3032 RMK AO2 LTG DSNT N T02230041
K49A 191755Z AUTO 00000KT 10SM CLR 22/02 A3032 RMK AO2 LTG DSNT N T02180024 10218 20065
K49A 191735Z AUTO 00000KT 10SM CLR 21/02 A3033 RMK AO2 LTG DSNT N T02140021
K49A 191715Z AUTO 00000KT 10SM CLR 21/02 A3034 RMK AO2 LTG DSNT N T02100015
K49A 191655Z AUTO 00000KT 10SM CLR 21/02 A3035 RMK AO2 LTG DSNT N T02050024
K49A 191635Z AUTO 00000KT 10SM CLR 20/02 A3037 RMK AO2 LTG DSNT N T02010021
K49A 191615Z AUTO 00000KT 10SM CLR 20/02 A3037 RMK AO2 LTG DSNT N T01970024
K49A 191555Z AUTO 00000KT 10SM CLR 19/04 A3038 RMK AO2 LTG DSNT N T01880038
K49A 191535Z AUTO 00000KT 10SM CLR 18/06 A3038 RMK AO2 LTG DSNT N T01840063
K49A 191515Z AUTO 05003KT 10SM CLR 17/07 A3038 RMK AO2 LTG DSNT N T01730068
K49A 191455Z AUTO 00000KT 10SM CLR 16/07 A3038 RMK AO2 LTG DSNT N T01580069
K49A 191435Z AUTO 00000KT 10SM CLR 14/08 A3038 RMK AO2 LTG DSNT N T01430075
K49A 191415Z AUTO 01003KT 10SM CLR 12/07 A3038 RMK AO2 LTG DSNT N T01220067
K49A 191355Z AUTO 01004KT 10SM CLR 11/06 A3038 RMK AO2 LTG DSNT N T01100064
K49A 191335Z AUTO 03004KT 10SM CLR 10/07 A3037 RMK AO2 LTG DSNT N T01010070
K49A 191315Z AUTO 00000KT 10SM CLR 08/06 A3037 RMK AO2 LTG DSNT N T00820062
K49A 191255Z AUTO 01004KT 10SM CLR 07/07 A3036 RMK AO2 LTG DSNT N T00700069
K49A 191235Z AUTO 05004KT 10SM CLR 07/07 A3035 RMK AO2 LTG DSNT N T00680068
K49A 191215Z AUTO 02003KT 10SM CLR 07/07 A3034 RMK AO2 LTG DSNT N T00660066
K49A 191155Z AUTO 02004KT 10SM CLR A3034 RMK AO2 LTG DSNT N
K49A 191135Z AUTO 01004KT 10SM CLR 06/06 A3033 RMK AO2 LTG DSNT N T00600060
K49A 191115Z AUTO 02004KT 10SM CLR 06/06 A3032 RMK AO2 LTG DSNT N T00610061
K49A 191055Z AUTO 04005KT 10SM CLR 06/06 A3032 RMK AO2 LTG DSNT N T00620062
K49A 191035Z AUTO 02003KT 10SM CLR 06/06 A3032 RMK AO2 LTG DSNT N T00620062
K49A 191015Z AUTO 03003KT 10SM CLR 06/06 A3032 RMK AO2 LTG DSNT N T00630063
K49A 190955Z AUTO 02004KT 10SM CLR 07/07 A3032 RMK AO2 LTG DSNT N T00650065
K49A 190935Z AUTO 01004KT 10SM CLR 07/07 A3032 RMK AO2 LTG DSNT N T00660066
K49A 190915Z AUTO 02004KT 10SM CLR 07/07 A3031 RMK AO2 LTG DSNT N T00680068
K49A 190855Z AUTO 03005KT 10SM CLR A3031 RMK AO2 LTG DSNT N
K49A 190835Z AUTO 01005KT 10SM CLR A3031 RMK AO2 LTG DSNT N
K49A 190815Z AUTO 01003KT 10SM CLR A3031 RMK AO2 LTG DSNT N
K49A 190755Z AUTO 02003KT 10SM CLR A3031 RMK AO2 LTG DSNT N
K49A 190735Z AUTO 00000KT 10SM CLR A3032 RMK AO2 LTG DSNT N
K49A 190715Z AUTO 04003KT 10SM CLR A3031 RMK AO2 LTG DSNT N
K49A 190655Z AUTO 00000KT 10SM CLR 07/07 A3031 RMK AO2 LTG DSNT N T00700070
K49A 190635Z AUTO 02004KT 10SM CLR 07/07 A3031 RMK AO2 LTG DSNT N T00700070
K49A 190615Z AUTO 00000KT 10SM CLR 08/07 A3031 RMK AO2 LTG DSNT N T00760068
K49A 190555Z AUTO 05005KT 10SM CLR 09/07 A3031 RMK AO2 LTG DSNT N T00900072 10128 20075 402230065
K49A 190535Z AUTO 05005KT 10SM CLR A3031 RMK AO2 LTG DSNT N
K49A 190515Z AUTO 02003KT 10SM CLR 08/08 A3032 RMK AO2 LTG DSNT N T00770077
K49A 190455Z AUTO 05003KT 10SM CLR 09/08 A3032 RMK AO2 LTG DSNT N T00900080
K49A 190435Z AUTO 04003KT 10SM CLR 09/09 A3032 RMK AO2 LTG DSNT N T00860086
K49A 190415Z AUTO 36003KT 10SM CLR 08/08 A3033 RMK AO2 LTG DSNT N T00820082
K49A 190355Z AUTO 00000KT 10SM CLR 10/07 A3033 RMK AO2 LTG DSNT N T00950073
K49A 190335Z AUTO 10005KT 10SM CLR 12/07 A3033 RMK AO2 T01150071
K49A 190315Z AUTO 10003KT 10SM CLR 12/07 A3033 RMK AO2 LTG DSNT N T01210072
K49A 190255Z AUTO 09005KT 10SM CLR 11/10 A3033 RMK AO2 T01050095
K49A 190235Z AUTO 08004KT 10SM CLR A3033 RMK AO2 LTG DSNT N
K49A 190215Z AUTO 09003KT 10SM CLR 10/10 A3033 RMK AO2 LTG DSNT N T00980098
K49A 190155Z AUTO 00000KT 10SM CLR 10/10 A3033 RMK AO2 LTG DSNT N T01010101
K49A 190135Z AUTO 00000KT 10SM CLR 11/10 A3033 RMK AO2 LTG DSNT N T01060096
K49A 190115Z AUTO 00000KT 10SM CLR 11/09 A3033 RMK AO2 LTG DSNT N T01130094
K49A 190100Z AUTO 00000KT 10SM CLR 12/10 A3033 RMK AO2 LTG DSNT N T01160095
K49A 190035Z AUTO 00000KT 10SM CLR 12/09 A3032 RMK AO2 LTG DSNT N T01240094
K49A 190015Z AUTO 00000KT 10SM CLR 13/11 A3032 RMK AO2 LTG DSNT N T01250107
K49A 182355Z AUTO 00000KT 10SM CLR 13/10 A3032 RMK AO2 LTG DSNT N T01290100 10223 20129
K49A 182335Z AUTO 00000KT 10SM CLR 14/10 A3030 RMK AO2 LTG DSNT N T01400097
K49A 182315Z AUTO 00000KT 10SM CLR 16/09 A3030 RMK AO2 LTG DSNT N T01550093
K49A 182255Z AUTO 00000KT 10SM CLR 17/09 A3030 RMK AO2 LTG DSNT N T01710089
K49A 182235Z AUTO 18003KT 10SM CLR 19/07 A3030 RMK AO2 LTG DSNT N T01920071
K49A 182215Z AUTO 20003KT 10SM CLR 20/08 A3030 RMK AO2 LTG DSNT N T02010075
K49A 182155Z AUTO 00000KT 10SM CLR 21/07 A3030 RMK AO2 LTG DSNT N T02100067
K49A 182135Z AUTO 22003KT 10SM CLR 22/07 A3030 RMK AO2 LTG DSNT N T02160069
K49A 182115Z AUTO 19003KT 10SM CLR 22/06 A3030 RMK AO2 LTG DSNT N T02170062
K49A 182055Z AUTO 21003KT 10SM CLR 22/06 A3030 RMK AO2 LTG DSNT N T02200059
K49A 182035Z AUTO 00000KT 10SM CLR 22/06 A3030 RMK AO2 LTG DSNT N T02190055
K49A 182015Z AUTO 23004KT 10SM CLR 22/06 A3030 RMK AO2 LTG DSNT N T02230061
K49A 181955Z AUTO 17004KT 10SM CLR 22/06 A3030 RMK AO2 LTG DSNT N T02210058
K49A 181935Z AUTO 21006KT 10SM CLR 22/06 A3031 RMK AO2 LTG DSNT N T02190062
K49A 181915Z AUTO 20003KT 10SM CLR 22/06 A3031 RMK AO2 LTG DSNT N T02200059
K49A 181855Z AUTO 30003KT 10SM CLR 21/06 A3031 RMK AO2 LTG DSNT N T02130062
K49A 181835Z AUTO 00000KT 10SM CLR 21/06 A3032 RMK AO2 LTG DSNT N T02080059
K49A 181815Z AUTO 19003KT 10SM CLR 21/06 A3034 RMK AO2 LTG DSNT N T02110063
K49A 181755Z AUTO 15003KT 10SM CLR 20/06 A3034 RMK AO2 LTG DSNT N T02040064 10207 20065
K49A 181735Z AUTO 00000KT 10SM CLR 21/07 A3035 RMK AO2 LTG DSNT N T02060069
K49A 181715Z AUTO 21003KT 10SM CLR 20/07 A3037 RMK AO2 LTG DSNT N T02000067
K49A 181655Z AUTO 27003KT 10SM CLR 19/07 A3037 RMK AO2 LTG DSNT N T01940068
K49A 181635Z AUTO 17003KT 10SM CLR 19/07 A3038 RMK AO2 LTG DSNT N T01910070
K49A 181615Z AUTO 00000KT 10SM CLR 18/07 A3038 RMK AO2 LTG DSNT N T01810068
K49A 181555Z AUTO 20003KT 10SM CLR 18/07 A3038 RMK AO2 LTG DSNT N T01780070
K49A 181535Z AUTO 00000KT 10SM CLR 17/08 A3038 RMK AO2 LTG DSNT N T01720076
K49A 181515Z AUTO 15003KT 10SM CLR 17/08 A3038 RMK AO2 LTG DSNT N T01660075
K49A 181455Z AUTO 00000KT 10SM CLR 15/08 A3038 RMK AO2 LTG DSNT N T01510082
K49A 181435Z AUTO 00000KT 10SM CLR 15/08 A3038 RMK AO2 LTG DSNT N T01460079
K49A 181415Z AUTO 00000KT 10SM CLR 13/08 A3038 RMK AO2 LTG DSNT N T01340081
K49A 181355Z AUTO 00000KT 10SM CLR 12/07 A3038 RMK AO2 T01190072
K49A 181335Z AUTO 00000KT 10SM CLR 11/07 A3038 RMK AO2 LTG DSNT N T01120073
K49A 181315Z AUTO 04003KT 10SM CLR 10/07 A3037 RMK AO2 LTG DSNT N T00960074
K49A 181255Z AUTO 00000KT 10SM CLR 09/07 A3037 RMK AO2 LTG DSNT N T00900073
K49A 181235Z AUTO 04004KT 10SM CLR 08/08 A3037 RMK AO2 LTG DSNT N T00790075
K49A 181215Z AUTO 04005KT 10SM CLR 07/07 A3035 RMK AO2 LTG DSNT N T00700070
K49A 181155Z AUTO 05006KT 10SM CLR 07/06 A3035 RMK AO2 LTG DSNT N T00650064 10083 20065
K49A 181135Z AUTO 04006KT 10SM CLR 07/07 A3035 RMK AO2 LTG DSNT N T00670067
K49A 181115Z AUTO 05006KT 10SM CLR 07/07 A3035 RMK AO2 LTG DSNT N T00740067
K49A 181055Z AUTO 04005KT 10SM CLR 07/07 A3034 RMK AO2 LTG DSNT N T00710065
K49A 181035Z AUTO 04006KT 10SM CLR 07/07 A3034 RMK AO2 LTG DSNT N T00710071
K49A 181015Z AUTO 05004KT 10SM CLR 07/07 A3034 RMK AO2 LTG DSNT N T00670067
K49A 180955Z AUTO 03003KT 10SM CLR 07/07 A3034 RMK AO2 LTG DSNT N T00670067
K49A 180935Z AUTO 04005KT 10SM CLR 07/07 A3033 RMK AO2 LTG DSNT N T00680068
K49A 180915Z AUTO 05005KT 10SM CLR A3032 RMK AO2 LTG DSNT N
K49A 180855Z AUTO 03003KT 10SM CLR 07/07 A3032 RMK AO2 LTG DSNT N T00670067
K49A 180835Z AUTO 04004KT 10SM CLR 07/07 A3032 RMK AO2 LTG DSNT N T00710071
K49A 180815Z AUTO 02005KT 10SM CLR 07/07 A3032 RMK AO2 LTG DSNT N T00740074